Time;durP1;ratioP1;P1;durP2;ratioP2;P2;SDS_P1;SDS_P2;PMS_P1;PMS_P2;Temp;Humidity;BMP_temperature;BMP_pressure;BME280_temperature;BME280_humidity;BME280_pressure;Samples;Min_cycle;Max_cycle;Signal;HPM_P1;HPM_P2
2023/07/10 00:01:04;;;;;;;9.55;3.08;;;;;;;22.83;42.86;101450.97;6273056;22;20375;-71
2023/07/10 00:03:30;;;;;;;8.57;3.00;;;;;;;22.87;42.85;101454.88;6273280;22;20688;-71
2023/07/10 00:05:56;;;;;;;11.30;3.00;;;;;;;22.87;42.83;101449.47;6273100;22;20340;-71
2023/07/10 00:08:22;;;;;;;10.50;3.13;;;;;;;23.02;42.26;101455.19;6273380;22;20335;-71
2023/07/10 00:10:48;;;;;;;7.77;3.10;;;;;;;23.10;42.09;101451.34;6273254;22;20408;-71
2023/07/10 00:13:14;;;;;;;11.57;3.28;;;;;;;23.08;42.26;101456.16;6273202;22;20351;-71
2023/07/10 00:15:40;;;;;;;9.03;2.90;;;;;;;22.99;42.69;101454.84;6273276;22;20359;-71
2023/07/10 00:18:15;;;;;;;9.60;3.15;;;;;;;22.86;42.98;101453.19;6273406;22;20342;-71
2023/07/10 00:20:40;;;;;;;8.95;3.22;;;;;;;22.86;42.85;101455.91;6273590;22;20406;-71
2023/07/10 00:23:06;;;;;;;8.43;3.20;;;;;;;22.88;42.94;101448.38;6273170;22;20344;-71
2023/07/10 00:25:32;;;;;;;10.10;3.10;;;;;;;22.86;42.79;101456.72;6273233;22;20397;-71
2023/07/10 00:27:57;;;;;;;7.47;3.05;;;;;;;22.78;42.94;101457.09;6272960;22;20374;-71
2023/07/10 00:30:25;;;;;;;7.70;3.10;;;;;;;22.68;43.34;101444.13;6273974;22;20343;-71
2023/07/10 00:32:53;;;;;;;8.48;3.40;;;;;;;22.61;43.67;101453.41;6273933;22;20347;-71
2023/07/10 00:35:20;;;;;;;8.80;3.00;;;;;;;22.52;43.99;101450.22;6273707;22;20335;-71
2023/07/10 00:38:00;;;;;;;10.55;3.50;;;;;;;22.44;43.80;101439.75;6273684;22;20339;-71
2023/07/10 00:40:26;;;;;;;9.13;3.30;;;;;;;22.45;43.97;101447.59;6273001;22;20923;-71
2023/07/10 00:42:58;;;;;;;10.13;3.42;;;;;;;22.40;44.07;101454.75;6274341;22;20343;-72
2023/07/10 00:45:23;;;;;;;11.50;3.75;;;;;;;22.35;44.40;101457.34;6275023;22;20339;-71
2023/07/10 00:48:36;;;;;;;11.27;3.50;;;;;;;22.29;44.41;101456.38;6274347;22;20405;-72
2023/07/10 00:51:18;;;;;;;8.03;3.17;;;;;;;22.15;44.61;101453.84;6199610;22;20487;-71
2023/07/10 00:53:45;;;;;;;9.38;3.33;;;;;;;22.15;44.74;101459.25;6268750;22;20343;-71
2023/07/10 00:56:17;;;;;;;9.75;3.58;;;;;;;22.09;45.08;101460.16;6269666;22;20374;-71
2023/07/10 00:58:45;;;;;;;8.90;3.25;;;;;;;22.15;44.69;101451.13;6268343;22;20401;-71
2023/07/10 01:01:14;;;;;;;9.43;3.47;;;;;;;22.08;44.93;101457.69;6268641;22;20371;-71
2023/07/10 01:03:41;;;;;;;9.18;3.22;;;;;;;22.14;44.82;101460.28;6268358;22;20335;-71
2023/07/10 01:06:27;;;;;;;8.25;3.30;;;;;;;22.22;44.73;101458.31;6271371;22;20337;-71
2023/07/10 01:09:08;;;;;;;8.23;3.35;;;;;;;22.13;44.94;101458.66;6271112;22;20772;-71
2023/07/10 01:11:35;;;;;;;6.75;3.20;;;;;;;22.01;45.51;101457.78;6270955;22;20343;-71
2023/07/10 01:14:03;;;;;;;7.93;2.95;;;;;;;21.89;45.79;101454.19;6271751;22;20342;-71
2023/07/10 01:16:30;;;;;;;7.40;3.38;;;;;;;21.94;45.55;101457.03;6273819;22;20334;-71
2023/07/10 01:18:56;;;;;;;7.00;3.33;;;;;;;21.99;45.50;101454.47;6275139;22;20336;-71
2023/07/10 01:21:30;;;;;;;8.77;3.33;;;;;;;22.03;45.31;101457.53;6274731;22;20707;-71
2023/07/10 01:23:58;;;;;;;11.18;3.58;;;;;;;22.09;45.21;101443.97;6274626;22;20784;-70
2023/07/10 01:26:25;;;;;;;8.95;3.30;;;;;;;22.24;44.85;101453.53;6274366;22;20649;-72
2023/07/10 01:28:53;;;;;;;9.93;3.20;;;;;;;22.27;44.69;101448.53;6274872;22;20336;-71
2023/07/10 01:31:19;;;;;;;9.38;3.55;;;;;;;22.26;44.71;101457.66;6274607;22;20841;-71
2023/07/10 01:34:04;;;;;;;8.68;3.38;;;;;;;22.18;44.87;101452.53;6274702;22;20358;-72
2023/07/10 01:36:34;;;;;;;8.63;3.13;;;;;;;22.17;44.92;101455.50;6274988;22;20340;-72
2023/07/10 01:39:43;;;;;;;10.57;3.37;;;;;;;22.17;45.03;101444.69;6273293;22;20347;-71
2023/07/10 01:42:08;;;;;;;11.97;3.53;;;;;;;22.14;44.99;101449.47;6274099;22;20367;-70
2023/07/10 01:44:38;;;;;;;10.13;3.25;;;;;;;22.11;45.03;101458.06;6273981;22;20645;-71
2023/07/10 01:47:07;;;;;;;9.40;3.40;;;;;;;22.07;45.24;101461.44;6273658;22;20343;-71
2023/07/10 01:49:51;;;;;;;11.15;3.50;;;;;;;21.97;45.52;101456.59;6273636;22;20819;-70
2023/07/10 01:52:19;;;;;;;8.83;3.43;;;;;;;21.92;45.39;101459.13;6273393;22;20780;-70
2023/07/10 01:54:45;;;;;;;10.47;3.63;;;;;;;21.93;45.64;101463.47;6274043;22;20340;-71
2023/07/10 01:57:12;;;;;;;8.77;3.30;;;;;;;21.84;45.98;101460.28;6274291;22;20378;-71
2023/07/10 01:59:38;;;;;;;10.68;3.55;;;;;;;21.83;46.10;101466.72;6274557;22;20425;-71
2023/07/10 02:02:04;;;;;;;12.23;3.47;;;;;;;21.82;45.93;101465.06;6274293;22;20343;-71
2023/07/10 02:04:29;;;;;;;11.30;3.35;;;;;;;21.77;46.21;101454.97;6274746;22;20355;-71
2023/07/10 02:06:55;;;;;;;10.70;3.60;;;;;;;21.79;46.01;101465.53;6274729;22;20340;-71
2023/07/10 02:09:25;;;;;;;11.75;3.40;;;;;;;21.78;46.20;101471.97;6274042;22;20852;-72
2023/07/10 02:11:51;;;;;;;9.27;3.33;;;;;;;21.82;46.20;101469.63;6274228;22;20346;-72
2023/07/10 02:14:17;;;;;;;9.13;3.50;;;;;;;21.82;46.20;101478.56;6274260;22;20363;-71
2023/07/10 02:16:43;;;;;;;9.97;3.60;;;;;;;21.72;46.41;101470.19;6274177;22;20343;-71
2023/07/10 02:19:09;;;;;;;8.88;3.50;;;;;;;21.71;46.43;101476.63;6274101;22;20802;-71
2023/07/10 02:21:35;;;;;;;10.35;3.40;;;;;;;21.67;46.50;101478.94;6274089;22;20358;-71
2023/07/10 02:24:00;;;;;;;8.23;3.30;;;;;;;21.58;46.87;101477.59;6273856;22;20366;-71
2023/07/10 02:26:28;;;;;;;9.70;3.45;;;;;;;21.57;46.89;101492.13;6274551;22;20371;-71
2023/07/10 02:28:54;;;;;;;10.85;3.80;;;;;;;21.56;46.64;101494.00;6274646;22;20400;-71
2023/07/10 02:31:20;;;;;;;10.30;3.47;;;;;;;21.58;46.76;101486.50;6274085;22;20347;-71
2023/07/10 02:33:46;;;;;;;9.10;3.45;;;;;;;21.56;46.74;101485.91;6274053;22;20335;-71
2023/07/10 02:36:11;;;;;;;10.10;3.40;;;;;;;21.64;46.60;101492.88;6274144;22;20340;-71
2023/07/10 02:38:37;;;;;;;10.60;3.50;;;;;;;21.64;46.61;101492.06;6273785;22;20657;-70
2023/07/10 02:41:03;;;;;;;12.70;3.50;;;;;;;21.64;46.65;101492.06;6273846;22;20367;-70
2023/07/10 02:43:28;;;;;;;9.37;3.67;;;;;;;21.58;46.57;101494.59;6273846;22;20394;-71
2023/07/10 02:45:54;;;;;;;10.30;3.90;;;;;;;21.60;46.75;101489.00;6274272;22;20336;-71
2023/07/10 02:48:19;;;;;;;10.20;3.53;;;;;;;21.62;46.68;101496.88;6273865;22;20776;-70
2023/07/10 02:50:45;;;;;;;12.50;3.87;;;;;;;21.60;46.61;101504.34;6273966;22;20327;-70
2023/07/10 02:53:10;;;;;;;11.03;3.40;;;;;;;21.62;46.75;101499.56;6273564;22;20340;-71
2023/07/10 02:55:37;;;;;;;11.02;3.55;;;;;;;21.68;46.50;101501.34;6273855;22;20469;-71
2023/07/10 02:58:04;;;;;;;12.70;3.65;;;;;;;21.72;46.24;101495.28;6273596;22;20816;-71
2023/07/10 03:00:29;;;;;;;8.65;3.60;;;;;;;21.79;46.19;101506.00;6273613;22;20374;-71
2023/07/10 03:02:55;;;;;;;8.00;3.20;;;;;;;21.80;46.14;101504.94;6273831;22;20649;-71
2023/07/10 03:05:22;;;;;;;8.27;3.42;;;;;;;21.84;46.15;101508.88;6273648;22;20397;-71
2023/07/10 03:07:48;;;;;;;9.90;3.60;;;;;;;21.90;46.31;101515.22;6273946;22;20332;-71
2023/07/10 03:10:13;;;;;;;10.33;3.53;;;;;;;21.87;46.35;101512.97;6273884;22;20710;-70
2023/07/10 03:12:39;;;;;;;10.00;3.50;;;;;;;21.98;45.86;101506.81;6273907;22;20381;-71
2023/07/10 03:15:05;;;;;;;7.23;3.40;;;;;;;22.09;45.72;101507.91;6273817;22;20339;-71
2023/07/10 03:17:31;;;;;;;9.87;3.80;;;;;;;22.07;45.71;101513.53;6273845;22;20391;-71
2023/07/10 03:19:57;;;;;;;8.40;3.47;;;;;;;22.17;45.60;101509.50;6273643;22;20517;-71
2023/07/10 03:22:22;;;;;;;11.40;3.70;;;;;;;22.36;45.59;101513.00;6273184;22;20393;-71
2023/07/10 03:24:48;;;;;;;11.67;3.87;;;;;;;22.44;45.72;101516.22;6273773;22;20340;-71
2023/07/10 03:27:13;;;;;;;11.17;3.53;;;;;;;22.53;45.38;101511.31;6273262;22;20871;-71
2023/07/10 03:29:39;;;;;;;8.90;3.70;;;;;;;22.56;45.32;101513.53;6273652;22;20347;-71
2023/07/10 03:32:06;;;;;;;8.80;3.83;;;;;;;;;;6274309;22;20792;-71
2023/07/10 03:34:31;;;;;;;6.65;3.45;;;;;;;22.74;45.25;101515.34;6274938;22;20346;-71
2023/07/10 03:36:57;;;;;;;8.37;3.47;;;;;;;22.67;45.23;101498.41;6275977;22;20340;-71
2023/07/10 03:39:22;;;;;;;11.98;3.88;;;;;;;22.78;45.35;101510.28;6276048;22;20462;-71
2023/07/10 03:41:48;;;;;;;8.68;3.72;;;;;;;22.79;45.23;101504.66;6276578;22;20475;-71
2023/07/10 03:44:13;;;;;;;9.07;4.10;;;;;;;22.95;44.84;101499.66;6275511;22;20764;-71
2023/07/10 03:46:39;;;;;;;11.93;3.83;;;;;;;23.04;44.95;101499.09;6273410;22;20349;-71
2023/07/10 03:49:05;;;;;;;11.38;4.00;;;;;;;23.17;44.85;101500.72;6273384;22;20331;-71
2023/07/10 03:51:30;;;;;;;10.70;4.35;;;;;;;23.16;44.76;101499.09;6273539;22;20350;-71
2023/07/10 03:53:56;;;;;;;9.57;3.58;;;;;;;23.25;44.41;101499.56;6273631;22;20380;-71
2023/07/10 03:56:21;;;;;;;11.60;3.80;;;;;;;23.33;44.39;101512.72;6273446;22;20406;-71
2023/07/10 03:58:47;;;;;;;9.80;3.87;;;;;;;23.24;44.43;101503.31;6273854;22;20331;-71
2023/07/10 04:01:14;;;;;;;12.40;3.88;;;;;;;23.26;44.14;101498.50;6272702;22;20370;-71
2023/07/10 04:03:40;;;;;;;11.77;4.05;;;;;;;23.21;44.16;101504.63;6274312;22;20416;-71
2023/07/10 04:06:08;;;;;;;11.60;3.90;;;;;;;23.20;44.33;101516.50;6272118;22;20590;-71
2023/07/10 04:08:39;;;;;;;12.88;4.25;;;;;;;23.29;44.20;101512.38;6271994;22;20416;-71
2023/07/10 04:11:14;;;;;;;10.38;4.07;;;;;;;23.41;43.80;101514.28;6270406;22;20336;-72
2023/07/10 04:13:40;;;;;;;10.63;3.75;;;;;;;23.51;43.58;101506.38;6272365;22;20740;-72
2023/07/10 04:16:11;;;;;;;13.13;4.23;;;;;;;23.59;43.42;101513.31;6273220;22;20335;-72
2023/07/10 04:18:38;;;;;;;15.82;4.32;;;;;;;23.65;43.21;101507.75;6275771;22;20331;-72
2023/07/10 04:21:07;;;;;;;12.30;4.22;;;;;;;23.78;42.82;101512.09;6275301;22;20360;-72
2023/07/10 04:23:33;;;;;;;10.35;3.92;;;;;;;23.79;42.75;101508.34;6275408;22;20370;-72
2023/07/10 04:25:58;;;;;;;9.20;3.70;;;;;;;23.93;42.80;101510.78;6275373;22;20401;-72
2023/07/10 04:28:24;;;;;;;12.50;4.07;;;;;;;23.89;42.79;101501.50;6275360;22;20331;-72
2023/07/10 04:30:51;;;;;;;10.75;3.80;;;;;;;24.07;42.72;101506.75;6274445;22;20331;-71
2023/07/10 04:33:18;;;;;;;14.03;3.60;;;;;;;24.34;42.25;101504.28;6266551;22;20385;-71
2023/07/10 04:35:50;;;;;;;13.50;4.07;;;;;;;24.40;42.29;101508.72;6273078;22;20418;-72
2023/07/10 04:38:16;;;;;;;8.27;3.60;;;;;;;24.54;41.95;101506.59;6272938;22;20328;-72
2023/07/10 04:40:53;;;;;;;18.27;4.00;;;;;;;24.63;41.80;101504.28;6274200;22;20385;-72
2023/07/10 04:43:18;;;;;;;9.98;3.75;;;;;;;24.70;41.64;101512.25;6271628;22;20367;-72
2023/07/10 04:45:43;;;;;;;12.43;3.87;;;;;;;24.82;41.46;101507.59;6272916;22;20331;-72
2023/07/10 04:48:09;;;;;;;12.07;4.00;;;;;;;24.91;41.35;101511.53;6275190;22;20335;-72
2023/07/10 04:50:34;;;;;;;11.05;3.83;;;;;;;24.96;41.27;101516.22;6274849;22;20820;-72
2023/07/10 04:53:00;;;;;;;17.17;4.67;;;;;;;25.06;41.13;101518.25;6274882;22;20339;-72
2023/07/10 04:55:25;;;;;;;15.23;4.03;;;;;;;25.15;40.79;101519.47;6274345;22;20340;-72
2023/07/10 04:57:51;;;;;;;15.50;3.87;;;;;;;25.29;40.77;101509.16;6274720;22;20363;-72
2023/07/10 05:00:16;;;;;;;10.20;3.93;;;;;;;25.44;40.60;101509.34;6274762;22;20853;-72
2023/07/10 05:02:42;;;;;;;13.30;4.00;;;;;;;25.50;40.50;101510.25;6274986;22;20655;-72
2023/07/10 05:05:08;;;;;;;9.57;3.53;;;;;;;25.62;40.51;101518.28;6274720;22;20335;-72
2023/07/10 05:07:33;;;;;;;12.70;3.77;;;;;;;25.87;40.29;101509.63;6274289;22;20339;-72
2023/07/10 05:09:58;;;;;;;8.25;3.47;;;;;;;25.98;40.34;101510.59;6274266;22;20649;-72
2023/07/10 05:12:24;;;;;;;9.20;3.20;;;;;;;26.04;40.22;101513.13;6273130;22;20360;-72
2023/07/10 05:14:50;;;;;;;13.30;3.77;;;;;;;26.09;40.25;101509.63;6274232;22;20342;-72
2023/07/10 05:17:15;;;;;;;9.52;4.13;;;;;;;26.28;39.85;101516.38;6274154;22;20405;-72
2023/07/10 05:19:41;;;;;;;11.55;3.88;;;;;;;26.46;39.74;101514.38;6273981;22;20373;-72
2023/07/10 05:22:06;;;;;;;9.10;3.80;;;;;;;26.60;39.53;101512.06;6274055;22;20436;-72
2023/07/10 05:24:32;;;;;;;12.40;3.93;;;;;;;26.67;39.24;101520.88;6273968;22;20347;-72
2023/07/10 05:26:57;;;;;;;7.03;3.40;;;;;;;26.74;39.53;101509.75;6273617;22;20355;-72
2023/07/10 05:29:22;;;;;;;8.57;3.27;;;;;;;26.92;39.28;101522.16;6274291;22;20342;-71
2023/07/10 05:31:48;;;;;;;5.38;2.85;;;;;;;26.87;38.96;101515.59;6274989;22;20351;-71
2023/07/10 05:34:15;;;;;;;7.68;3.13;;;;;;;26.92;38.79;101520.28;6274773;22;20344;-72
2023/07/10 05:36:40;;;;;;;8.90;3.30;;;;;;;26.86;38.31;101529.44;6275090;22;20367;-72
2023/07/10 05:39:06;;;;;;;6.43;2.88;;;;;;;26.87;38.36;101518.31;6275220;22;20346;-71
2023/07/10 05:41:33;;;;;;;6.95;3.08;;;;;;;26.93;38.07;101526.53;6274940;22;20486;-71
2023/07/10 05:43:59;;;;;;;11.00;3.45;;;;;;;26.97;37.92;101527.63;6274957;22;20400;-72
2023/07/10 05:46:24;;;;;;;8.10;3.23;;;;;;;27.07;37.82;101517.66;6274200;22;20438;-71
2023/07/10 05:48:50;;;;;;;7.87;3.00;;;;;;;27.38;37.46;101523.31;6274120;22;20359;-72
2023/07/10 05:51:15;;;;;;;8.90;3.00;;;;;;;27.44;37.64;101530.44;6273260;22;20331;-72
2023/07/10 05:53:40;;;;;;;6.00;2.80;;;;;;;27.52;37.37;101528.31;6274475;22;20344;-71
2023/07/10 05:56:06;;;;;;;6.28;2.70;;;;;;;27.53;37.32;101527.22;6273080;22;20432;-71
2023/07/10 05:58:34;;;;;;;7.45;3.03;;;;;;;27.57;37.29;101531.88;6274260;22;20340;-72
2023/07/10 06:01:00;;;;;;;10.25;3.10;;;;;;;27.84;37.28;101520.00;6275072;22;20387;-71
2023/07/10 06:03:30;;;;;;;6.70;2.88;;;;;;;27.84;37.05;101517.28;6274568;22;20374;-72
2023/07/10 06:05:59;;;;;;;10.23;3.65;;;;;;;27.88;36.82;101514.84;6274172;22;20692;-72
2023/07/10 06:08:26;;;;;;;6.05;2.58;;;;;;;27.94;36.14;101509.16;6274295;22;20340;-71
2023/07/10 06:10:51;;;;;;;6.38;2.95;;;;;;;27.75;36.30;101521.59;6272332;22;20339;-72
2023/07/10 06:13:17;;;;;;;8.63;2.97;;;;;;;27.83;36.26;101524.63;6272024;22;20331;-72
2023/07/10 06:15:44;;;;;;;6.85;2.80;;;;;;;27.97;35.97;101519.53;6272140;22;20806;-73
2023/07/10 06:20:56;;;;;;;7.30;2.90;;;;;;;28.12;35.33;101524.19;6271739;22;20880;-72
2023/07/10 06:23:23;;;;;;;6.63;2.70;;;;;;;28.19;35.04;101527.50;6271667;22;20328;-72
2023/07/10 06:25:50;;;;;;;10.60;3.20;;;;;;;28.09;35.04;101524.75;6274362;22;20338;-72
2023/07/10 06:28:16;;;;;;;7.32;3.00;;;;;;;28.34;34.73;101517.72;6274424;22;20346;-72
2023/07/10 06:30:43;;;;;;;5.57;2.50;;;;;;;28.38;34.73;101529.75;6272704;22;20363;-72
2023/07/10 06:33:09;;;;;;;6.85;2.85;;;;;;;28.42;34.83;101536.28;6274337;22;20422;-71
2023/07/10 06:35:34;;;;;;;8.20;3.00;;;;;;;28.65;34.79;101534.97;6273058;22;20363;-72
2023/07/10 06:38:00;;;;;;;8.50;2.80;;;;;;;28.32;34.61;101523.44;6274625;22;20407;-72
2023/07/10 06:40:26;;;;;;;7.13;2.80;;;;;;;28.40;34.93;101530.28;6272700;22;20364;-71
2023/07/10 06:42:51;;;;;;;5.97;2.93;;;;;;;28.74;34.40;101527.88;6271566;22;20661;-72
2023/07/10 06:45:17;;;;;;;10.70;3.47;;;;;;;28.51;34.39;101526.47;6268963;22;20375;-72
2023/07/10 06:47:44;;;;;;;9.93;3.20;;;;;;;28.65;34.72;101526.78;6271893;22;20362;-71
2023/07/10 06:50:12;;;;;;;8.02;2.80;;;;;;;28.71;34.97;101524.88;6271977;22;20332;-71
2023/07/10 06:52:40;;;;;;;7.85;3.15;;;;;;;28.90;34.66;101528.72;6271673;22;20362;-71
2023/07/10 06:55:08;;;;;;;11.55;3.38;;;;;;;29.12;34.28;101520.22;6271816;22;20332;-72
2023/07/10 06:57:34;;;;;;;9.13;3.00;;;;;;;29.00;34.35;101525.13;6273466;22;20393;-71
2023/07/10 07:00:00;;;;;;;11.18;3.30;;;;;;;28.94;34.39;101523.53;6271712;22;20443;-73
2023/07/10 07:02:26;;;;;;;11.27;6.70;;;;;;;29.16;34.51;101512.31;6272079;22;20339;-77
2023/07/10 07:04:51;;;;;;;6.28;2.72;;;;;;;29.40;33.53;101503.53;6271908;22;20340;-71
2023/07/10 07:07:17;;;;;;;9.63;3.30;;;;;;;29.39;33.76;101502.72;6272686;22;20339;-73
2023/07/10 07:09:43;;;;;;;8.15;2.78;;;;;;;29.48;33.44;101511.16;6272854;22;20837;-74
2023/07/10 07:12:10;;;;;;;7.77;2.77;;;;;;;29.41;33.60;101510.63;6273796;22;20339;-74
2023/07/10 07:14:35;;;;;;;6.03;2.83;;;;;;;29.47;33.63;101504.84;6272053;22;20351;-72
2023/07/10 07:17:01;;;;;;;6.57;3.50;;;;;;;29.50;33.94;101503.50;6274118;22;20703;-72
2023/07/10 07:19:27;;;;;;;16.23;11.40;;;;;;;29.80;34.04;101494.41;6273996;22;20347;-73
2023/07/10 07:21:52;;;;;;;8.70;3.03;;;;;;;29.78;32.71;101504.75;6273624;22;20339;-71
2023/07/10 07:24:18;;;;;;;9.00;3.40;;;;;;;29.64;33.48;101509.16;6272977;22;20676;-73
2023/07/10 07:26:43;;;;;;;7.07;2.80;;;;;;;29.66;33.64;101494.16;6273345;22;20367;-72
2023/07/10 07:29:09;;;;;;;9.33;3.03;;;;;;;29.83;32.91;101493.81;6272390;22;20340;-71
2023/07/10 07:31:34;;;;;;;6.93;2.80;;;;;;;29.95;32.96;101498.97;6273419;22;20335;-72
2023/07/10 07:34:00;;;;;;;7.50;2.80;;;;;;;29.75;32.70;101488.94;6273927;22;20408;-73
2023/07/10 07:36:25;;;;;;;6.80;3.00;;;;;;;29.70;32.52;101491.66;6273801;22;20408;-72
2023/07/10 07:38:51;;;;;;;7.80;2.73;;;;;;;29.86;32.45;101487.78;6274213;22;20339;-73
2023/07/10 07:41:16;;;;;;;7.03;3.00;;;;;;;30.03;32.39;101492.06;6269996;22;20403;-73
2023/07/10 07:43:42;;;;;;;6.33;3.00;;;;;;;30.25;32.22;101487.00;6265543;22;20339;-72
2023/07/10 07:46:07;;;;;;;6.40;2.80;;;;;;;29.95;31.56;101498.16;6264197;22;20350;-72
2023/07/10 07:48:33;;;;;;;8.73;3.13;;;;;;;29.63;32.26;101493.88;6271969;22;20371;-72
2023/07/10 07:51:04;;;;;;;9.87;3.00;;;;;;;29.62;32.50;101486.78;6268617;22;20787;-72
2023/07/10 07:53:33;;;;;;;6.43;2.90;;;;;;;29.68;32.87;101480.22;6264253;22;20733;-72
2023/07/10 07:55:59;;;;;;;9.50;2.90;;;;;;;29.84;32.42;101484.53;6264483;22;20347;-72
2023/07/10 07:58:25;;;;;;;10.32;3.28;;;;;;;29.92;32.53;101496.78;6264711;22;20336;-73
2023/07/10 08:00:51;;;;;;;7.33;3.07;;;;;;;29.44;33.16;101496.41;6264804;22;20378;-71
2023/07/10 08:03:17;;;;;;;6.85;3.03;;;;;;;29.77;32.57;101492.22;6265398;22;21135;-71
2023/07/10 08:06:02;;;;;;;9.00;3.07;;;;;;;29.97;32.20;101490.47;6270856;22;20343;-71
2023/07/10 08:08:27;;;;;;;9.43;3.00;;;;;;;30.15;32.52;101484.34;6270728;22;20477;-70
2023/07/10 08:10:53;;;;;;;7.63;3.17;;;;;;;29.72;32.73;101484.81;6270971;22;20420;-72
2023/07/10 08:13:22;;;;;;;5.87;2.70;;;;;;;29.92;32.83;101486.66;6270117;22;20780;-72
2023/07/10 08:15:47;;;;;;;7.17;2.53;;;;;;;29.95;33.21;101490.75;6270960;22;20435;-72
2023/07/10 08:18:13;;;;;;;3.58;2.75;;;;;;;30.30;32.24;101481.47;6272409;22;20371;-72
2023/07/10 08:20:38;;;;;;;9.63;3.00;;;;;;;30.50;32.19;101479.72;6271959;22;20395;-72
2023/07/10 08:23:04;;;;;;;7.65;2.67;;;;;;;29.79;32.49;101486.47;6272652;22;20690;-74
2023/07/10 08:25:30;;;;;;;7.83;3.07;;;;;;;29.84;32.62;101479.06;6272177;22;20781;-73
2023/07/10 08:28:00;;;;;;;9.07;3.15;;;;;;;30.37;32.34;101477.66;6272988;22;20347;-73
2023/07/10 08:30:26;;;;;;;8.98;3.35;;;;;;;30.53;31.84;101464.69;6273770;22;20332;-72
2023/07/10 08:32:52;;;;;;;7.82;2.83;;;;;;;30.26;30.92;101469.50;6273438;22;20354;-73
2023/07/10 08:35:17;;;;;;;6.63;2.77;;;;;;;30.52;31.77;101454.81;6273413;22;20363;-73
2023/07/10 08:37:43;;;;;;;8.80;3.40;;;;;;;30.53;30.95;101465.50;6273423;22;20340;-73
2023/07/10 08:40:29;;;;;;;5.88;2.95;;;;;;;30.58;31.32;101464.63;6273636;22;20363;-73
2023/07/10 08:42:55;;;;;;;6.72;2.90;;;;;;;30.66;30.94;101467.56;6272960;22;20359;-73
2023/07/10 08:45:40;;;;;;;7.00;3.17;;;;;;;30.96;30.81;101462.94;6273463;22;20335;-73
2023/07/10 08:48:29;;;;;;;9.43;3.55;;;;;;;31.14;31.58;101458.63;6273238;22;20347;-73
2023/07/10 08:51:07;;;;;;;8.07;3.20;;;;;;;31.25;31.57;101465.63;6273355;22;20798;-73
2023/07/10 08:53:36;;;;;;;7.75;3.45;;;;;;;31.27;32.06;101467.25;6273250;22;20427;-72
2023/07/10 08:56:33;;;;;;;8.05;3.17;;;;;;;31.50;31.22;101452.75;6272869;22;20346;-72
2023/07/10 08:59:24;;;;;;;6.47;3.17;;;;;;;31.81;30.27;101466.84;6273237;22;20378;-73
2023/07/10 09:01:50;;;;;;;9.68;2.97;;;;;;;31.49;30.03;101453.84;6273137;22;20351;-73
2023/07/10 09:04:19;;;;;;;7.28;2.95;;;;;;;31.55;29.37;101446.41;6274913;22;20350;-73
2023/07/10 09:06:54;;;;;;;6.60;3.20;;;;;;;31.67;28.93;101443.22;6275445;22;20659;-75
2023/07/10 09:09:28;;;;;;;5.87;2.90;;;;;;;31.76;28.88;101449.66;6275290;22;20358;-74
2023/07/10 09:11:57;;;;;;;6.68;2.92;;;;;;;31.98;29.33;101443.59;6274805;22;20340;-72
2023/07/10 09:14:30;;;;;;;5.50;2.70;;;;;;;31.95;28.94;101447.75;6274169;22;20337;-74
2023/07/10 09:16:56;;;;;;;7.15;3.00;;;;;;;31.95;27.79;101452.41;6275180;22;20350;-72
2023/07/10 09:19:23;;;;;;;8.35;2.92;;;;;;;31.99;28.05;101447.97;6274969;22;20504;-73
2023/07/10 09:21:49;;;;;;;6.25;2.60;;;;;;;31.63;27.60;101445.72;6275304;22;20626;-73
2023/07/10 09:24:21;;;;;;;7.20;2.90;;;;;;;31.62;27.46;101439.44;6274448;22;20791;-73
2023/07/10 09:26:48;;;;;;;8.88;3.17;;;;;;;31.99;27.77;101445.22;6275517;22;20397;-73
2023/07/10 09:29:16;;;;;;;8.38;2.75;;;;;;;32.26;27.95;101438.25;6275189;22;20335;-73
2023/07/10 09:32:12;;;;;;;10.07;3.13;;;;;;;32.65;27.31;101442.59;6275576;22;20328;-72
2023/07/10 09:34:43;;;;;;;7.25;2.63;;;;;;;32.68;27.55;101440.03;6275148;22;20776;-74
2023/07/10 09:37:14;;;;;;;4.88;2.58;;;;;;;32.71;27.03;101446.84;6275043;22;20344;-73
2023/07/10 09:39:40;;;;;;;9.80;3.00;;;;;;;32.63;26.81;101447.53;6274572;22;20432;-73
2023/07/10 09:42:13;;;;;;;12.70;3.30;;;;;;;32.44;27.65;101444.81;6274733;22;20778;-73
2023/07/10 09:44:44;;;;;;;9.10;2.90;;;;;;;32.65;27.63;101440.63;6274837;22;20343;-73
2023/07/10 09:47:13;;;;;;;4.97;2.57;;;;;;;32.67;27.14;101443.91;6274957;22;20707;-73
2023/07/10 09:50:00;;;;;;;4.20;2.90;;;;;;;32.73;27.03;101445.41;6275093;22;20426;-72
2023/07/10 09:52:39;;;;;;;5.55;2.63;;;;;;;32.67;26.75;101443.09;6275203;22;20335;-73
2023/07/10 09:55:08;;;;;;;5.25;2.60;;;;;;;32.65;26.72;101437.91;6273616;22;20848;-73
2023/07/10 09:57:53;;;;;;;7.00;2.88;;;;;;;32.50;27.38;101440.88;6274540;22;20378;-73
2023/07/10 10:00:20;;;;;;;6.43;2.70;;;;;;;32.71;26.75;101441.34;6274873;22;20425;-72
2023/07/10 10:02:52;;;;;;;5.43;2.53;;;;;;;32.51;26.29;101434.28;6274769;22;20342;-73
2023/07/10 10:05:22;;;;;;;4.85;2.50;;;;;;;32.31;25.49;101439.00;6274503;22;20346;-73
2023/07/10 10:07:52;;;;;;;6.35;2.40;;;;;;;32.27;25.79;101439.88;6274297;22;20335;-73
2023/07/10 10:10:23;;;;;;;7.07;2.95;;;;;;;32.49;25.70;101429.09;6274898;22;20343;-73
2023/07/10 10:13:16;;;;;;;8.73;3.07;;;;;;;32.82;26.00;101431.00;6274535;22;20346;-73
2023/07/10 10:15:54;;;;;;;7.60;2.90;;;;;;;32.76;26.18;101424.78;6274512;22;20691;-73
2023/07/10 10:18:36;;;;;;;7.75;2.90;;;;;;;32.63;25.52;101420.91;6274398;22;20795;-73
2023/07/10 10:21:03;;;;;;;6.75;2.80;;;;;;;33.05;24.92;101421.75;6274385;22;20851;-74
2023/07/10 10:23:34;;;;;;;5.63;2.70;;;;;;;32.91;25.07;101420.94;6274267;22;20370;-74
2023/07/10 10:26:37;;;;;;;6.05;2.60;;;;;;;33.03;23.76;101418.50;6274078;22;20756;-73
2023/07/10 10:29:27;;;;;;;5.20;2.40;;;;;;;33.07;22.84;101414.03;6273776;22;20326;-73
2023/07/10 10:32:01;;;;;;;5.95;2.33;;;;;;;32.85;23.59;101403.75;6274224;22;20361;-73
2023/07/10 10:35:08;;;;;;;7.13;2.60;;;;;;;33.01;22.83;101409.75;6274434;22;20652;-73
2023/07/10 10:37:58;;;;;;;4.23;2.33;;;;;;;32.87;22.38;101414.44;6199562;22;20421;-72
2023/07/10 10:40:42;;;;;;;6.28;2.45;;;;;;;32.97;22.47;101408.72;6273553;22;20405;-73
2023/07/10 10:43:32;;;;;;;5.50;2.60;;;;;;;33.07;22.44;101397.53;6273811;22;20717;-73
2023/07/10 10:46:34;;;;;;;5.75;2.50;;;;;;;32.88;22.34;101408.66;6274084;22;20661;-72
2023/07/10 10:49:30;;;;;;;4.60;2.50;;;;;;;32.90;23.52;101405.56;6273866;22;20339;-74
2023/07/10 10:52:13;;;;;;;5.87;2.43;;;;;;;32.86;23.26;101397.16;6273265;22;20437;-74
2023/07/10 10:54:51;;;;;;;5.90;2.65;;;;;;;32.78;23.52;101403.34;6273582;22;20644;-72
2023/07/10 10:57:44;;;;;;;4.90;2.40;;;;;;;32.68;23.98;101392.53;6273341;22;20521;-73
2023/07/10 11:00:22;;;;;;;6.57;2.45;;;;;;;32.81;24.13;101385.44;6271688;22;20371;-72
2023/07/10 11:02:59;;;;;;;8.07;3.10;;;;;;;33.18;23.87;101383.63;6273879;22;20357;-72
2023/07/10 11:05:27;;;;;;;10.07;3.00;;;;;;;33.12;23.19;101385.66;6273266;22;20801;-72
2023/07/10 11:07:57;;;;;;;6.65;2.80;;;;;;;33.33;23.45;101369.53;6272069;22;20336;-72
2023/07/10 11:10:30;;;;;;;7.03;3.15;;;;;;;33.34;22.48;101372.00;6273581;22;20413;-73
2023/07/10 11:12:56;;;;;;;5.72;2.80;;;;;;;33.46;22.80;101365.97;6273487;22;20335;-73
2023/07/10 11:15:22;;;;;;;4.55;2.53;;;;;;;33.62;22.81;101366.44;6273104;22;20625;-74
2023/07/10 11:17:53;;;;;;;5.93;2.50;;;;;;;33.44;22.78;101373.72;6273529;22;20772;-73
2023/07/10 11:20:19;;;;;;;8.63;3.13;;;;;;;33.41;23.04;101365.28;6273518;22;20363;-73
2023/07/10 11:23:04;;;;;;;5.47;2.55;;;;;;;33.39;22.72;101357.34;6273578;22;20344;-74
2023/07/10 11:25:37;;;;;;;4.93;2.30;;;;;;;33.30;22.41;101354.50;6272301;22;20339;-73
2023/07/10 11:28:18;;;;;;;4.00;2.25;;;;;;;33.40;22.09;101358.94;6273339;22;20343;-73
2023/07/10 11:30:44;;;;;;;4.82;2.60;;;;;;;33.64;21.45;101363.38;6268745;22;20328;-74
2023/07/10 11:33:19;;;;;;;7.38;2.85;;;;;;;33.43;20.93;101354.78;6270109;22;20343;-72
2023/07/10 11:36:10;;;;;;;5.03;2.80;;;;;;;32.95;20.47;101356.03;6271121;22;20431;-73
2023/07/10 11:38:35;;;;;;;5.75;2.80;;;;;;;33.05;21.01;101355.03;6270679;22;20316;-73